sensor_id;sensor_type;location;lat;lon;timestamp;pressure;altitude;pressure_sealevel;temperature;humidity
65718;BME280;52445;52.466;-1.016;2023-04-15T00:01:05;99572.81;;;6.77;76.01
65718;BME280;52445;52.466;-1.016;2023-04-15T00:03:32;99574.56;;;6.75;77.11
65718;BME280;52445;52.466;-1.016;2023-04-15T00:06:00;99580.56;;;6.77;77.38
65718;BME280;52445;52.466;-1.016;2023-04-15T00:08:27;99576.25;;;6.74;77.61
65718;BME280;52445;52.466;-1.016;2023-04-15T00:10:55;99580.56;;;6.77;77.20
65718;BME280;52445;52.466;-1.016;2023-04-15T00:13:21;99583.13;;;6.77;76.14
65718;BME280;52445;52.466;-1.016;2023-04-15T00:15:49;99582.28;;;6.75;75.79
65718;BME280;52445;52.466;-1.016;2023-04-15T00:18:15;99582.28;;;6.75;76.67
65718;BME280;52445;52.466;-1.016;2023-04-15T00:20:42;99592.53;;;6.76;77.19
65718;BME280;52445;52.466;-1.016;2023-04-15T00:23:08;99589.16;;;6.77;76.47
65718;BME280;52445;52.466;-1.016;2023-04-15T00:25:35;99584.00;;;6.77;75.72
65718;BME280;52445;52.466;-1.016;2023-04-15T00:28:02;99587.41;;;6.78;77.05
65718;BME280;52445;52.466;-1.016;2023-04-15T00:30:29;99586.56;;;6.77;77.15
65718;BME280;52445;52.466;-1.016;2023-04-15T00:32:57;99585.72;;;6.80;77.05
65718;BME280;52445;52.466;-1.016;2023-04-15T00:35:23;99586.59;;;6.79;77.47
65718;BME280;52445;52.466;-1.016;2023-04-15T00:37:50;99596.84;;;6.80;76.76
65718;BME280;52445;52.466;-1.016;2023-04-15T00:40:18;99596.03;;;6.83;76.99
65718;BME280;52445;52.466;-1.016;2023-04-15T00:42:46;99596.03;;;6.83;77.41
65718;BME280;52445;52.466;-1.016;2023-04-15T00:45:13;99608.06;;;6.84;76.34
65718;BME280;52445;52.466;-1.016;2023-04-15T00:47:40;99608.06;;;6.84;76.15
65718;BME280;52445;52.466;-1.016;2023-04-15T00:50:09;99614.91;;;6.85;76.69
65718;BME280;52445;52.466;-1.016;2023-04-15T00:52:36;99612.34;;;6.87;76.57
65718;BME280;52445;52.466;-1.016;2023-04-15T00:55:03;99623.53;;;6.87;77.63
65718;BME280;52445;52.466;-1.016;2023-04-15T00:57:30;99625.22;;;6.88;76.85
65718;BME280;52445;52.466;-1.016;2023-04-15T00:59:57;99617.50;;;6.87;76.15
65718;BME280;52445;52.466;-1.016;2023-04-15T01:02:24;99632.09;;;6.89;75.86
65718;BME280;52445;52.466;-1.016;2023-04-15T01:04:51;99633.84;;;6.90;76.33
65718;BME280;52445;52.466;-1.016;2023-04-15T01:07:17;99629.50;;;6.88;76.88
65718;BME280;52445;52.466;-1.016;2023-04-15T01:09:44;99637.25;;;6.89;76.07
65718;BME280;52445;52.466;-1.016;2023-04-15T01:12:12;99641.53;;;6.86;77.45
65718;BME280;52445;52.466;-1.016;2023-04-15T01:14:41;99647.53;;;6.86;77.12
65718;BME280;52445;52.466;-1.016;2023-04-15T01:17:07;99646.66;;;6.84;77.30
65718;BME280;52445;52.466;-1.016;2023-04-15T01:19:35;99654.38;;;6.84;77.07
65718;BME280;52445;52.466;-1.016;2023-04-15T01:22:02;99659.53;;;6.84;78.09
65718;BME280;52445;52.466;-1.016;2023-04-15T01:24:30;99669.84;;;6.84;77.40
65718;BME280;52445;52.466;-1.016;2023-04-15T01:26:57;99666.38;;;6.84;76.99
65718;BME280;52445;52.466;-1.016;2023-04-15T01:29:24;99676.66;;;6.82;77.58
65718;BME280;52445;52.466;-1.016;2023-04-15T01:31:54;99679.22;;;6.80;77.16
65718;BME280;52445;52.466;-1.016;2023-04-15T01:34:21;99680.97;;;6.80;78.25
65718;BME280;52445;52.466;-1.016;2023-04-15T01:36:48;99683.50;;;6.77;78.33
65718;BME280;52445;52.466;-1.016;2023-04-15T01:39:15;99686.94;;;6.76;78.35
65718;BME280;52445;52.466;-1.016;2023-04-15T01:41:41;99681.78;;;6.76;77.61
65718;BME280;52445;52.466;-1.016;2023-04-15T01:44:08;99688.66;;;6.77;77.85
65718;BME280;52445;52.466;-1.016;2023-04-15T01:46:35;99696.38;;;6.75;76.88
65718;BME280;52445;52.466;-1.016;2023-04-15T01:49:02;99707.53;;;6.76;78.60
65718;BME280;52445;52.466;-1.016;2023-04-15T01:51:29;99707.53;;;6.76;78.65
65718;BME280;52445;52.466;-1.016;2023-04-15T01:53:55;99702.38;;;6.74;77.79
65718;BME280;52445;52.466;-1.016;2023-04-15T01:56:22;99705.81;;;6.75;78.31
65718;BME280;52445;52.466;-1.016;2023-04-15T01:58:51;99702.38;;;6.76;78.42
65718;BME280;52445;52.466;-1.016;2023-04-15T02:01:18;99706.63;;;6.72;77.37
65718;BME280;52445;52.466;-1.016;2023-04-15T02:03:45;99709.22;;;6.69;78.24
65718;BME280;52445;52.466;-1.016;2023-04-15T02:06:13;99715.19;;;6.69;77.29
65718;BME280;52445;52.466;-1.016;2023-04-15T02:08:40;99722.06;;;6.67;78.70
65718;BME280;52445;52.466;-1.016;2023-04-15T02:11:06;99726.34;;;6.68;77.86
65718;BME280;52445;52.466;-1.016;2023-04-15T02:13:33;99731.47;;;6.65;79.39
65718;BME280;52445;52.466;-1.016;2023-04-15T02:16:00;99737.50;;;6.66;77.69
65718;BME280;52445;52.466;-1.016;2023-04-15T02:18:27;99736.59;;;6.64;78.66
65718;BME280;52445;52.466;-1.016;2023-04-15T02:20:54;99740.03;;;6.64;78.40
65718;BME280;52445;52.466;-1.016;2023-04-15T02:23:23;99742.59;;;6.63;78.22
65718;BME280;52445;52.466;-1.016;2023-04-15T02:25:49;99740.88;;;6.65;79.14
65718;BME280;52445;52.466;-1.016;2023-04-15T02:28:19;99749.44;;;6.62;77.98
65718;BME280;52445;52.466;-1.016;2023-04-15T02:30:47;99750.34;;;6.64;78.47
65718;BME280;52445;52.466;-1.016;2023-04-15T02:33:16;99751.19;;;6.63;79.15
65718;BME280;52445;52.466;-1.016;2023-04-15T02:35:43;99756.34;;;6.63;79.01
65718;BME280;52445;52.466;-1.016;2023-04-15T02:38:11;99751.19;;;6.63;79.44
65718;BME280;52445;52.466;-1.016;2023-04-15T02:40:37;99754.59;;;6.62;78.38
65718;BME280;52445;52.466;-1.016;2023-04-15T02:43:04;99760.59;;;6.61;78.64
65718;BME280;52445;52.466;-1.016;2023-04-15T02:45:32;99765.78;;;6.64;78.31
65718;BME280;52445;52.466;-1.016;2023-04-15T02:47:59;99769.19;;;6.65;78.20
65718;BME280;52445;52.466;-1.016;2023-04-15T02:50:31;99769.22;;;6.66;79.21
65718;BME280;52445;52.466;-1.016;2023-04-15T02:52:58;99774.38;;;6.66;77.90
65718;BME280;52445;52.466;-1.016;2023-04-15T02:55:27;99770.03;;;6.61;79.98
65718;BME280;52445;52.466;-1.016;2023-04-15T02:57:54;99776.03;;;6.61;79.37
65718;BME280;52445;52.466;-1.016;2023-04-15T03:00:21;99784.66;;;6.63;78.81
65718;BME280;52445;52.466;-1.016;2023-04-15T03:02:47;99781.19;;;6.61;79.14
65718;BME280;52445;52.466;-1.016;2023-04-15T03:05:17;99795.78;;;6.64;79.82
65718;BME280;52445;52.466;-1.016;2023-04-15T03:07:44;99797.50;;;6.65;78.39
65718;BME280;52445;52.466;-1.016;2023-04-15T03:10:11;99805.25;;;6.66;78.50
65718;BME280;52445;52.466;-1.016;2023-04-15T03:12:37;99805.25;;;6.66;78.71
65718;BME280;52445;52.466;-1.016;2023-04-15T03:15:05;99808.69;;;6.65;79.40
65718;BME280;52445;52.466;-1.016;2023-04-15T03:17:32;99819.88;;;6.67;78.67
65718;BME280;52445;52.466;-1.016;2023-04-15T03:20:00;99822.44;;;6.71;79.39
65718;BME280;52445;52.466;-1.016;2023-04-15T03:22:28;99822.44;;;6.71;78.64
65718;BME280;52445;52.466;-1.016;2023-04-15T03:24:54;99832.78;;;6.74;79.69
65718;BME280;52445;52.466;-1.016;2023-04-15T03:27:21;99834.50;;;6.72;79.03
65718;BME280;52445;52.466;-1.016;2023-04-15T03:29:48;99831.88;;;6.68;79.02
65718;BME280;52445;52.466;-1.016;2023-04-15T03:32:15;99842.19;;;6.70;78.68
65718;BME280;52445;52.466;-1.016;2023-04-15T03:34:42;99839.59;;;6.68;79.96
65718;BME280;52445;52.466;-1.016;2023-04-15T03:37:08;99844.75;;;6.68;79.80
65718;BME280;52445;52.466;-1.016;2023-04-15T03:39:35;99846.47;;;6.69;79.03
65718;BME280;52445;52.466;-1.016;2023-04-15T03:42:02;99850.78;;;6.69;78.71
65718;BME280;52445;52.466;-1.016;2023-04-15T03:44:29;99851.56;;;6.66;79.88
65718;BME280;52445;52.466;-1.016;2023-04-15T03:46:55;99845.59;;;6.71;79.62
65718;BME280;52445;52.466;-1.016;2023-04-15T03:49:22;99855.09;;;6.72;80.26
65718;BME280;52445;52.466;-1.016;2023-04-15T03:51:49;99853.34;;;6.71;79.59
65718;BME280;52445;52.466;-1.016;2023-04-15T03:54:16;99859.34;;;6.69;80.58
65718;BME280;52445;52.466;-1.016;2023-04-15T03:56:43;99859.28;;;6.66;80.61
65718;BME280;52445;52.466;-1.016;2023-04-15T03:59:09;99872.22;;;6.69;79.87
65718;BME280;52445;52.466;-1.016;2023-04-15T04:01:36;99867.91;;;6.67;78.75
65718;BME280;52445;52.466;-1.016;2023-04-15T04:04:03;99870.44;;;6.65;80.25
65718;BME280;52445;52.466;-1.016;2023-04-15T04:06:30;99877.31;;;6.66;79.14
65718;BME280;52445;52.466;-1.016;2023-04-15T04:08:56;99876.50;;;6.67;79.19
65718;BME280;52445;52.466;-1.016;2023-04-15T04:11:23;99879.06;;;6.67;80.12
65718;BME280;52445;52.466;-1.016;2023-04-15T04:13:50;99879.03;;;6.64;79.62
65718;BME280;52445;52.466;-1.016;2023-04-15T04:16:16;99889.34;;;6.66;78.88
65718;BME280;52445;52.466;-1.016;2023-04-15T04:18:43;99897.91;;;6.66;80.29
65718;BME280;52445;52.466;-1.016;2023-04-15T04:21:10;99903.97;;;6.70;79.87
65718;BME280;52445;52.466;-1.016;2023-04-15T04:23:37;99901.34;;;6.65;79.66
65718;BME280;52445;52.466;-1.016;2023-04-15T04:26:03;99903.06;;;6.66;80.08
65718;BME280;52445;52.466;-1.016;2023-04-15T04:28:30;99907.28;;;6.60;79.98
65718;BME280;52445;52.466;-1.016;2023-04-15T04:30:56;99904.72;;;6.61;80.32
65718;BME280;52445;52.466;-1.016;2023-04-15T04:33:23;99908.16;;;6.60;79.54
65718;BME280;52445;52.466;-1.016;2023-04-15T04:35:49;99913.28;;;6.60;79.21
65718;BME280;52445;52.466;-1.016;2023-04-15T04:38:16;99920.13;;;6.58;79.82
65718;BME280;52445;52.466;-1.016;2023-04-15T04:40:43;99918.34;;;6.54;79.36
65718;BME280;52445;52.466;-1.016;2023-04-15T04:43:10;99920.94;;;6.54;80.42
65718;BME280;52445;52.466;-1.016;2023-04-15T04:45:36;99928.69;;;6.57;79.77
65718;BME280;52445;52.466;-1.016;2023-04-15T04:48:03;99933.84;;;6.57;79.38
65718;BME280;52445;52.466;-1.016;2023-04-15T04:50:32;99933.88;;;6.59;79.99
65718;BME280;52445;52.466;-1.016;2023-04-15T04:53:00;99937.22;;;6.53;80.34
65718;BME280;52445;52.466;-1.016;2023-04-15T04:55:27;99950.97;;;6.55;79.12
65718;BME280;52445;52.466;-1.016;2023-04-15T04:57:53;99946.66;;;6.52;79.16
65718;BME280;52445;52.466;-1.016;2023-04-15T05:00:20;99954.38;;;6.52;79.67
65718;BME280;52445;52.466;-1.016;2023-04-15T05:02:46;99961.25;;;6.55;79.69
65718;BME280;52445;52.466;-1.016;2023-04-15T05:05:14;99971.59;;;6.58;79.53
65718;BME280;52445;52.466;-1.016;2023-04-15T05:07:40;99980.16;;;6.57;80.11
65718;BME280;52445;52.466;-1.016;2023-04-15T05:10:07;99983.59;;;6.56;80.33
65718;BME280;52445;52.466;-1.016;2023-04-15T05:12:35;99988.75;;;6.56;80.64
65718;BME280;52445;52.466;-1.016;2023-04-15T05:15:04;99995.59;;;6.57;78.86
65718;BME280;52445;52.466;-1.016;2023-04-15T05:17:30;100008.53;;;6.60;79.89
65718;BME280;52445;52.466;-1.016;2023-04-15T05:19:58;100009.38;;;6.59;79.03
65718;BME280;52445;52.466;-1.016;2023-04-15T05:22:25;100017.06;;;6.58;80.61
65718;BME280;52445;52.466;-1.016;2023-04-15T05:24:51;100020.50;;;6.60;79.88
65718;BME280;52445;52.466;-1.016;2023-04-15T05:27:18;100025.69;;;6.63;79.39
65718;BME280;52445;52.466;-1.016;2023-04-15T05:29:45;100031.72;;;6.63;79.43
65718;BME280;52445;52.466;-1.016;2023-04-15T05:32:11;100040.25;;;6.59;80.16
65718;BME280;52445;52.466;-1.016;2023-04-15T05:34:38;100047.06;;;6.57;80.48
65718;BME280;52445;52.466;-1.016;2023-04-15T05:37:05;100047.13;;;6.60;80.30
65718;BME280;52445;52.466;-1.016;2023-04-15T05:39:31;100051.34;;;6.56;79.69
65718;BME280;52445;52.466;-1.016;2023-04-15T05:41:58;100053.94;;;6.58;79.45
65718;BME280;52445;52.466;-1.016;2023-04-15T05:44:25;100057.41;;;6.60;80.13
65718;BME280;52445;52.466;-1.016;2023-04-15T05:46:52;100062.56;;;6.60;79.46
65718;BME280;52445;52.466;-1.016;2023-04-15T05:49:18;100071.19;;;6.65;79.43
65718;BME280;52445;52.466;-1.016;2023-04-15T05:51:46;100077.25;;;6.67;79.36
65718;BME280;52445;52.466;-1.016;2023-04-15T05:54:13;100078.13;;;6.69;80.06
65718;BME280;52445;52.466;-1.016;2023-04-15T05:56:39;100085.81;;;6.68;80.10
65718;BME280;52445;52.466;-1.016;2023-04-15T05:59:06;100096.16;;;6.71;79.46
65718;BME280;52445;52.466;-1.016;2023-04-15T06:01:33;100094.50;;;6.73;78.39
65718;BME280;52445;52.466;-1.016;2023-04-15T06:04:00;100105.59;;;6.71;78.84
65718;BME280;52445;52.466;-1.016;2023-04-15T06:06:27;100110.72;;;6.71;79.14
65718;BME280;52445;52.466;-1.016;2023-04-15T06:08:53;100100.47;;;6.74;79.18
65718;BME280;52445;52.466;-1.016;2023-04-15T06:11:21;100110.78;;;6.74;79.93
65718;BME280;52445;52.466;-1.016;2023-04-15T06:13:47;100119.47;;;6.79;78.72
65718;BME280;52445;52.466;-1.016;2023-04-15T06:16:14;100118.66;;;6.83;79.00
65718;BME280;52445;52.466;-1.016;2023-04-15T06:18:41;100127.25;;;6.85;79.69
65718;BME280;52445;52.466;-1.016;2023-04-15T06:21:07;100143.66;;;6.90;79.65
65718;BME280;52445;52.466;-1.016;2023-04-15T06:23:34;100147.94;;;6.91;78.35
65718;BME280;52445;52.466;-1.016;2023-04-15T06:26:02;100152.25;;;6.92;78.93
65718;BME280;52445;52.466;-1.016;2023-04-15T06:28:29;100156.56;;;6.95;79.77
65718;BME280;52445;52.466;-1.016;2023-04-15T06:30:55;100162.63;;;6.99;78.29
65718;BME280;52445;52.466;-1.016;2023-04-15T06:33:22;100162.66;;;7.02;79.24
65718;BME280;52445;52.466;-1.016;2023-04-15T06:35:49;100161.84;;;7.04;79.72
65718;BME280;52445;52.466;-1.016;2023-04-15T06:38:16;100170.47;;;7.08;78.83
65718;BME280;52445;52.466;-1.016;2023-04-15T06:40:42;100167.03;;;7.07;79.31
65718;BME280;52445;52.466;-1.016;2023-04-15T06:43:09;100178.25;;;7.11;79.33
65718;BME280;52445;52.466;-1.016;2023-04-15T06:45:36;100178.31;;;7.14;79.67
65718;BME280;52445;52.466;-1.016;2023-04-15T06:48:03;100185.22;;;7.18;78.90
65718;BME280;52445;52.466;-1.016;2023-04-15T06:50:29;100177.53;;;7.23;77.87
65718;BME280;52445;52.466;-1.016;2023-04-15T06:52:56;100184.41;;;7.23;79.30
65718;BME280;52445;52.466;-1.016;2023-04-15T06:55:22;100185.31;;;7.28;79.39
65718;BME280;52445;52.466;-1.016;2023-04-15T06:57:49;100192.25;;;7.32;78.60
65718;BME280;52445;52.466;-1.016;2023-04-15T07:00:16;100198.31;;;7.34;78.25
65718;BME280;52445;52.466;-1.016;2023-04-15T07:02:43;100205.22;;;7.37;77.96
65718;BME280;52445;52.466;-1.016;2023-04-15T07:05:10;100208.66;;;7.39;78.92
65718;BME280;52445;52.466;-1.016;2023-04-15T07:07:36;100223.34;;;7.43;77.99
65718;BME280;52445;52.466;-1.016;2023-04-15T07:10:04;100224.19;;;7.43;78.77
65718;BME280;52445;52.466;-1.016;2023-04-15T07:12:30;100231.97;;;7.46;78.04
65718;BME280;52445;52.466;-1.016;2023-04-15T07:14:57;100237.97;;;7.45;78.00
65718;BME280;52445;52.466;-1.016;2023-04-15T07:17:24;100243.16;;;7.50;78.51
65718;BME280;52445;52.466;-1.016;2023-04-15T07:19:50;100245.81;;;7.55;77.15
65718;BME280;52445;52.466;-1.016;2023-04-15T07:22:17;100242.38;;;7.56;78.49
65718;BME280;52445;52.466;-1.016;2023-04-15T07:24:44;100254.44;;;7.60;77.43
65718;BME280;52445;52.466;-1.016;2023-04-15T07:27:11;100259.66;;;7.63;77.56
65718;BME280;52445;52.466;-1.016;2023-04-15T07:29:38;100261.44;;;7.67;78.35
65718;BME280;52445;52.466;-1.016;2023-04-15T07:32:04;100259.78;;;7.72;77.94
65718;BME280;52445;52.466;-1.016;2023-04-15T07:34:31;100268.41;;;7.75;78.33
65718;BME280;52445;52.466;-1.016;2023-04-15T07:36:58;100264.22;;;7.84;77.20
65718;BME280;52445;52.466;-1.016;2023-04-15T07:39:24;100287.50;;;7.89;77.83
65718;BME280;52445;52.466;-1.016;2023-04-15T07:41:51;100277.22;;;7.92;77.68
65718;BME280;52445;52.466;-1.016;2023-04-15T07:44:18;100288.44;;;7.97;77.17
65718;BME280;52445;52.466;-1.016;2023-04-15T07:46:44;100291.03;;;7.97;77.23
65718;BME280;52445;52.466;-1.016;2023-04-15T07:49:11;100306.50;;;7.97;76.87
65718;BME280;52445;52.466;-1.016;2023-04-15T07:51:38;100313.38;;;7.98;76.89
65718;BME280;52445;52.466;-1.016;2023-04-15T07:54:05;100310.84;;;8.02;77.33
65718;BME280;52445;52.466;-1.016;2023-04-15T07:56:31;100328.03;;;8.03;76.59
65718;BME280;52445;52.466;-1.016;2023-04-15T07:58:58;100327.22;;;8.04;77.02
65718;BME280;52445;52.466;-1.016;2023-04-15T08:01:27;100336.66;;;8.03;76.36
65718;BME280;52445;52.466;-1.016;2023-04-15T08:03:54;100334.06;;;8.02;76.24
65718;BME280;52445;52.466;-1.016;2023-04-15T08:06:21;100335.78;;;8.00;76.18
65718;BME280;52445;52.466;-1.016;2023-04-15T08:08:48;100332.34;;;8.01;76.60
65718;BME280;52445;52.466;-1.016;2023-04-15T08:11:14;100338.34;;;8.00;77.07
65718;BME280;52445;52.466;-1.016;2023-04-15T08:13:41;100339.22;;;8.02;76.28
65718;BME280;52445;52.466;-1.016;2023-04-15T08:16:25;100349.59;;;8.05;76.11
65718;BME280;52445;52.466;-1.016;2023-04-15T08:18:54;100349.63;;;8.08;76.79
65718;BME280;52445;52.466;-1.016;2023-04-15T08:21:22;100351.41;;;8.12;77.32
65718;BME280;52445;52.466;-1.016;2023-04-15T08:23:50;100358.28;;;8.13;76.87
65718;BME280;52445;52.466;-1.016;2023-04-15T08:26:18;100356.59;;;8.15;76.23
65718;BME280;52445;52.466;-1.016;2023-04-15T08:28:45;100362.59;;;8.16;76.02
65718;BME280;52445;52.466;-1.016;2023-04-15T08:31:13;100363.53;;;8.19;76.77
65718;BME280;52445;52.466;-1.016;2023-04-15T08:33:41;100367.03;;;8.25;76.30
65718;BME280;52445;52.466;-1.016;2023-04-15T08:36:08;100373.94;;;8.29;77.08
65718;BME280;52445;52.466;-1.016;2023-04-15T08:38:34;100381.72;;;8.32;76.03
65718;BME280;52445;52.466;-1.016;2023-04-15T08:41:04;100384.34;;;8.35;76.08
65718;BME280;52445;52.466;-1.016;2023-04-15T08:43:34;100392.13;;;8.40;76.46
65718;BME280;52445;52.466;-1.016;2023-04-15T08:46:01;100398.22;;;8.43;76.31
65718;BME280;52445;52.466;-1.016;2023-04-15T08:48:32;100400.84;;;8.48;76.65
65718;BME280;52445;52.466;-1.016;2023-04-15T08:50:59;100398.31;;;8.53;76.39
65718;BME280;52445;52.466;-1.016;2023-04-15T08:53:28;100403.47;;;8.53;76.44
65718;BME280;52445;52.466;-1.016;2023-04-15T08:55:56;100412.16;;;8.55;75.64
65718;BME280;52445;52.466;-1.016;2023-04-15T08:58:25;100417.31;;;8.55;76.17
65718;BME280;52445;52.466;-1.016;2023-04-15T09:00:52;100420.75;;;8.54;75.65
65718;BME280;52445;52.466;-1.016;2023-04-15T09:03:19;100419.75;;;8.47;75.85
65718;BME280;52445;52.466;-1.016;2023-04-15T09:05:47;100425.78;;;8.47;76.01
65718;BME280;52445;52.466;-1.016;2023-04-15T09:08:14;100430.09;;;8.48;76.02
65718;BME280;52445;52.466;-1.016;2023-04-15T09:10:41;100434.41;;;8.49;75.55
65718;BME280;52445;52.466;-1.016;2023-04-15T09:13:08;100436.25;;;8.54;75.48
65718;BME280;52445;52.466;-1.016;2023-04-15T09:15:37;100438.00;;;8.58;75.90
65718;BME280;52445;52.466;-1.016;2023-04-15T09:18:04;100443.22;;;8.64;75.52
65718;BME280;52445;52.466;-1.016;2023-04-15T09:20:39;100445.03;;;8.71;76.31
65718;BME280;52445;52.466;-1.016;2023-04-15T09:23:14;100446.88;;;8.82;75.55
65718;BME280;52445;52.466;-1.016;2023-04-15T09:25:42;100453.94;;;9.00;75.56
65718;BME280;52445;52.466;-1.016;2023-04-15T09:28:09;100456.69;;;9.16;75.56
65718;BME280;52445;52.466;-1.016;2023-04-15T09:30:36;100460.31;;;9.33;75.28
65718;BME280;52445;52.466;-1.016;2023-04-15T09:33:03;100457.84;;;9.50;74.82
65718;BME280;52445;52.466;-1.016;2023-04-15T09:35:33;100462.22;;;9.55;74.58
65718;BME280;52445;52.466;-1.016;2023-04-15T09:38:05;100470.00;;;9.61;74.31
65718;BME280;52445;52.466;-1.016;2023-04-15T09:43:09;100478.84;;;9.91;74.09
65718;BME280;52445;52.466;-1.016;2023-04-15T09:45:38;100492.78;;;10.10;73.74
65718;BME280;52445;52.466;-1.016;2023-04-15T09:50:51;100504.38;;;10.78;73.43
65718;BME280;52445;52.466;-1.016;2023-04-15T09:53:21;100514.78;;;10.89;73.21
65718;BME280;52445;52.466;-1.016;2023-04-15T09:55:54;100514.84;;;11.06;72.38
65718;BME280;52445;52.466;-1.016;2023-04-15T09:58:23;100506.22;;;11.23;72.46
65718;BME280;52445;52.466;-1.016;2023-04-15T10:00:50;100512.28;;;11.26;71.22
65718;BME280;52445;52.466;-1.016;2023-04-15T10:03:20;100513.16;;;11.30;71.27
65718;BME280;52445;52.466;-1.016;2023-04-15T10:05:49;100503.66;;;11.37;71.56
65718;BME280;52445;52.466;-1.016;2023-04-15T10:08:19;100503.69;;;11.49;71.49
65718;BME280;52445;52.466;-1.016;2023-04-15T10:10:47;100499.34;;;11.62;70.89
65718;BME280;52445;52.466;-1.016;2023-04-15T10:13:17;100501.94;;;11.76;70.32
65718;BME280;52445;52.466;-1.016;2023-04-15T10:15:55;100511.47;;;11.94;70.57
65718;BME280;52445;52.466;-1.016;2023-04-15T10:18:26;100512.31;;;12.14;71.23
65718;BME280;52445;52.466;-1.016;2023-04-15T10:20:53;100527.03;;;12.27;70.34
65718;BME280;52445;52.466;-1.016;2023-04-15T10:23:21;100528.66;;;12.52;70.55
65718;BME280;52445;52.466;-1.016;2023-04-15T10:25:50;100534.63;;;12.83;70.73
65718;BME280;52445;52.466;-1.016;2023-04-15T10:28:18;100532.75;;;13.10;69.73
65718;BME280;52445;52.466;-1.016;2023-04-15T10:30:46;100534.47;;;13.15;67.74
65718;BME280;52445;52.466;-1.016;2023-04-15T10:33:14;100541.47;;;13.06;68.05
65718;BME280;52445;52.466;-1.016;2023-04-15T10:35:42;100545.78;;;13.07;67.55
65718;BME280;52445;52.466;-1.016;2023-04-15T10:41:26;100553.63;;;13.00;66.89
65718;BME280;52445;52.466;-1.016;2023-04-15T10:44:01;100558.84;;;12.98;66.72
65718;BME280;52445;52.466;-1.016;2023-04-15T10:46:38;100564.03;;;13.03;67.11
65718;BME280;52445;52.466;-1.016;2023-04-15T10:49:12;100566.59;;;13.06;66.47
65718;BME280;52445;52.466;-1.016;2023-04-15T10:51:42;100570.94;;;13.02;66.22
65718;BME280;52445;52.466;-1.016;2023-04-15T11:05:50;100589.16;;;12.97;66.48
65718;BME280;52445;52.466;-1.016;2023-04-15T11:08:20;100578.75;;;13.04;66.17
65718;BME280;52445;52.466;-1.016;2023-04-15T11:11:04;100580.47;;;13.05;66.55
65718;BME280;52445;52.466;-1.016;2023-04-15T11:13:31;100583.06;;;13.11;65.57
65718;BME280;52445;52.466;-1.016;2023-04-15T11:15:58;100596.88;;;13.18;66.65
65718;BME280;52445;52.466;-1.016;2023-04-15T11:18:28;100596.88;;;13.21;65.01
65718;BME280;52445;52.466;-1.016;2023-04-15T11:20:59;100596.00;;;13.25;65.41
65718;BME280;52445;52.466;-1.016;2023-04-15T11:23:37;100602.91;;;13.31;65.07
65718;BME280;52445;52.466;-1.016;2023-04-15T11:26:07;100600.25;;;13.39;65.32
65718;BME280;52445;52.466;-1.016;2023-04-15T11:28:38;100608.03;;;13.39;65.23
65718;BME280;52445;52.466;-1.016;2023-04-15T11:31:08;100617.56;;;13.43;65.13
65718;BME280;52445;52.466;-1.016;2023-04-15T11:33:37;100623.63;;;13.51;65.31
65718;BME280;52445;52.466;-1.016;2023-04-15T11:36:04;100620.09;;;13.57;65.32
65718;BME280;52445;52.466;-1.016;2023-04-15T11:38:33;100627.91;;;13.58;65.24
65718;BME280;52445;52.466;-1.016;2023-04-15T11:40:59;100626.16;;;13.64;64.59
65718;BME280;52445;52.466;-1.016;2023-04-15T11:43:26;100628.72;;;13.67;64.95
65718;BME280;52445;52.466;-1.016;2023-04-15T11:45:55;100634.81;;;13.69;64.07
65718;BME280;52445;52.466;-1.016;2023-04-15T11:48:25;100632.16;;;13.75;63.58
65718;BME280;52445;52.466;-1.016;2023-04-15T11:50:55;100642.50;;;13.87;64.05
65718;BME280;52445;52.466;-1.016;2023-04-15T11:53:23;100645.03;;;13.94;64.42
65718;BME280;52445;52.466;-1.016;2023-04-15T11:55:52;100646.72;;;14.01;63.94
65718;BME280;52445;52.466;-1.016;2023-04-15T11:58:23;100647.59;;;14.03;63.84
65718;BME280;52445;52.466;-1.016;2023-04-15T12:00:53;100651.00;;;14.08;62.78
65718;BME280;52445;52.466;-1.016;2023-04-15T12:06:18;100655.22;;;14.25;63.30
65718;BME280;52445;52.466;-1.016;2023-04-15T12:16:44;100661.31;;;15.16;62.43
65718;BME280;52445;52.466;-1.016;2023-04-15T12:19:21;100667.94;;;15.44;62.14
65718;BME280;52445;52.466;-1.016;2023-04-15T12:21:49;100667.66;;;15.64;61.53
65718;BME280;52445;52.466;-1.016;2023-04-15T12:24:20;100664.06;;;15.72;60.60
65718;BME280;52445;52.466;-1.016;2023-04-15T12:26:50;100664.06;;;15.72;60.45
65718;BME280;52445;52.466;-1.016;2023-04-15T12:29:19;100671.88;;;15.73;60.02
65718;BME280;52445;52.466;-1.016;2023-04-15T12:31:50;100664.00;;;15.78;60.14
65718;BME280;52445;52.466;-1.016;2023-04-15T12:34:24;100670.94;;;15.79;60.06
65718;BME280;52445;52.466;-1.016;2023-04-15T12:36:51;100667.38;;;15.83;59.17
65718;BME280;52445;52.466;-1.016;2023-04-15T12:39:21;100669.03;;;15.90;59.07
65718;BME280;52445;52.466;-1.016;2023-04-15T12:41:48;100675.88;;;16.01;58.54
65718;BME280;52445;52.466;-1.016;2023-04-15T12:44:15;100673.97;;;16.12;59.21
65718;BME280;52445;52.466;-1.016;2023-04-15T12:46:41;100673.63;;;16.31;58.85
65718;BME280;52445;52.466;-1.016;2023-04-15T12:49:08;100668.28;;;16.40;58.98
65718;BME280;52445;52.466;-1.016;2023-04-15T12:51:35;100672.59;;;16.41;58.51
65718;BME280;52445;52.466;-1.016;2023-04-15T12:54:01;100668.22;;;16.43;57.83
65718;BME280;52445;52.466;-1.016;2023-04-15T12:56:29;100669.72;;;16.57;58.19
65718;BME280;52445;52.466;-1.016;2023-04-15T12:58:55;100673.97;;;16.64;57.04
65718;BME280;52445;52.466;-1.016;2023-04-15T13:01:22;100669.72;;;16.57;55.93
65718;BME280;52445;52.466;-1.016;2023-04-15T13:03:49;100682.06;;;16.49;56.72
65718;BME280;52445;52.466;-1.016;2023-04-15T13:06:16;100685.41;;;16.57;57.04
65718;BME280;52445;52.466;-1.016;2023-04-15T13:08:43;100687.72;;;16.74;57.48
65718;BME280;52445;52.466;-1.016;2023-04-15T13:11:23;100691.13;;;16.78;56.43
65718;BME280;52445;52.466;-1.016;2023-04-15T13:13:50;100703.44;;;16.74;55.49
65718;BME280;52445;52.466;-1.016;2023-04-15T13:16:18;100701.84;;;16.65;55.64
65718;BME280;52445;52.466;-1.016;2023-04-15T13:18:45;100708.06;;;16.58;55.23
65718;BME280;52445;52.466;-1.016;2023-04-15T13:21:12;100694.28;;;16.47;55.01
65718;BME280;52445;52.466;-1.016;2023-04-15T13:23:40;100701.31;;;16.44;55.43
65718;BME280;52445;52.466;-1.016;2023-04-15T13:26:07;100708.31;;;16.42;55.08